Time;durP1;ratioP1;P1;durP2;ratioP2;P2;SDS_P1;SDS_P2;PMS_P1;PMS_P2;Temp;Humidity;BMP_temperature;BMP_pressure;BME280_temperature;BME280_humidity;BME280_pressure;Samples;Min_cycle;Max_cycle;Signal;HPM_P1;HPM_P2
2022/11/16 00:01:23;;;;;;;2.23;1.90;;;18.30;68.60;19.30;99174.00;;;;5068576;28;20158;-51
2022/11/16 00:03:50;;;;;;;1.97;1.87;;;18.40;68.80;19.30;99167.00;;;;5068641;28;20198;-50
2022/11/16 00:06:16;;;;;;;2.00;1.90;;;18.40;68.80;19.30;99164.00;;;;5068777;28;20166;-51
2022/11/16 00:09:20;;;;;;;3.60;1.90;;;18.40;68.90;19.30;99166.00;;;;5068540;28;20307;-51
2022/11/16 00:11:30;;;;;;;2.20;2.00;;;18.40;68.90;19.40;99157.00;;;;5067872;28;20653;-49
2022/11/16 00:13:56;;;;;;;2.23;1.70;;;18.40;69.00;19.40;99167.00;;;;5068364;28;20201;-51
2022/11/16 00:16:22;;;;;;;1.90;1.80;;;18.40;69.00;19.40;99161.00;;;;5068357;28;20217;-51
2022/11/16 00:18:47;;;;;;;1.90;1.80;;;18.40;69.00;19.40;99160.00;;;;5068237;28;20180;-51
2022/11/16 00:21:13;;;;;;;1.90;1.80;;;18.40;69.00;19.40;99155.00;;;;5067756;28;20719;-51
2022/11/16 00:23:39;;;;;;;2.33;2.00;;;18.40;69.90;19.40;99153.00;;;;5067960;28;20227;-50
2022/11/16 00:26:05;;;;;;;2.00;1.90;;;18.40;69.10;19.40;99152.00;;;;5068316;28;20169;-51
2022/11/16 00:28:31;;;;;;;2.23;2.03;;;18.50;69.10;19.40;99148.00;;;;5068209;28;20629;-51
2022/11/16 00:30:59;;;;;;;1.77;1.50;;;18.40;69.00;19.40;99143.00;;;;5068240;28;20177;-52
2022/11/16 00:33:25;;;;;;;1.90;1.80;;;18.50;69.10;19.50;99148.00;;;;5067794;28;20748;-51
2022/11/16 00:35:50;;;;;;;2.20;2.00;;;18.50;69.10;19.50;99144.00;;;;5068596;28;20197;-52
2022/11/16 00:38:16;;;;;;;1.90;1.80;;;18.50;69.10;19.50;99157.00;;;;5068197;28;20586;-53
2022/11/16 00:40:42;;;;;;;1.93;1.80;;;18.50;69.20;19.50;99150.00;;;;5068219;28;20177;-52
2022/11/16 00:43:07;;;;;;;2.47;2.00;;;18.40;69.20;19.50;99155.00;;;;5067887;28;20170;-51
2022/11/16 00:45:33;;;;;;;2.57;1.90;;;18.40;69.20;19.50;99157.00;;;;5067967;28;20239;-53
2022/11/16 00:47:59;;;;;;;1.83;1.73;;;18.40;69.20;19.50;99147.00;;;;5068011;28;20207;-52
2022/11/16 00:50:25;;;;;;;2.20;2.00;;;18.40;69.20;19.50;99148.00;;;;5068239;28;20542;-52
2022/11/16 00:52:51;;;;;;;2.30;2.10;;;18.50;69.40;19.50;99144.00;;;;5071565;28;20181;-54
2022/11/16 00:55:17;;;;;;;2.47;1.90;;;18.50;69.40;19.50;99148.00;;;;5072210;28;20693;-52
2022/11/16 00:57:43;;;;;;;2.00;1.80;;;18.50;69.40;19.50;99138.00;;;;5068485;28;20244;-52
2022/11/16 01:00:10;;;;;;;2.20;1.90;;;18.50;69.30;19.50;99139.00;;;;5073661;28;20215;-55
2022/11/16 01:02:35;;;;;;;1.97;1.87;;;18.50;69.30;19.50;99146.00;;;;5078522;28;20576;-53
2022/11/16 01:05:01;;;;;;;2.10;1.90;;;18.50;69.20;19.50;99138.00;;;;5079036;28;20186;-53
2022/11/16 01:07:27;;;;;;;2.10;1.83;;;18.50;69.30;19.50;99131.00;;;;5056295;28;20178;-54
2022/11/16 01:09:52;;;;;;;2.10;1.90;;;18.50;69.30;19.50;99129.00;;;;5073101;28;20174;-53
2022/11/16 01:12:18;;;;;;;2.07;1.87;;;18.50;69.40;19.50;99132.00;;;;5073025;28;20550;-52
2022/11/16 01:14:45;;;;;;;2.20;2.00;;;18.50;69.40;19.50;99130.00;;;;5054090;28;20197;-52
2022/11/16 01:17:12;;;;;;;1.90;1.80;;;18.50;69.50;19.50;99126.00;;;;5054013;28;20625;-53
2022/11/16 01:19:38;;;;;;;1.80;1.70;;;18.50;69.40;19.50;99130.00;;;;5072021;28;20474;-53
2022/11/16 01:22:04;;;;;;;1.87;1.77;;;18.50;69.40;19.50;99129.00;;;;5071472;28;20180;-53
2022/11/16 01:24:29;;;;;;;1.90;1.80;;;18.50;69.40;19.50;99130.00;;;;5071821;28;20217;-50
2022/11/16 01:26:56;;;;;;;2.07;1.97;;;18.50;69.30;19.60;99126.00;;;;5072150;28;20195;-53
2022/11/16 01:29:24;;;;;;;1.77;1.67;;;18.60;69.50;19.60;99136.00;;;;5071708;28;20176;-51
2022/11/16 01:31:50;;;;;;;1.80;1.70;;;18.60;69.50;19.60;99123.00;;;;5072045;28;20200;-50
2022/11/16 01:34:16;;;;;;;2.00;1.90;;;18.60;69.40;19.60;99131.00;;;;5071693;28;20705;-50
2022/11/16 01:36:41;;;;;;;1.70;1.60;;;18.50;69.40;19.60;99131.00;;;;5071384;28;20267;-51
2022/11/16 01:39:08;;;;;;;1.90;1.80;;;18.60;69.50;19.60;99135.00;;;;5072003;28;20174;-50
2022/11/16 01:41:34;;;;;;;1.90;1.80;;;18.50;69.50;19.60;99128.00;;;;5053622;28;20162;-51
2022/11/16 01:44:06;;;;;;;1.90;1.80;;;18.50;69.60;19.60;99134.00;;;;5071042;28;20220;-51
2022/11/16 01:46:31;;;;;;;2.40;1.80;;;18.50;69.60;19.60;99118.00;;;;5071108;28;20170;-52
2022/11/16 01:49:07;;;;;;;1.97;1.87;;;18.50;69.60;19.60;99120.00;;;;5070759;28;20162;-52
2022/11/16 01:51:32;;;;;;;2.00;1.90;;;18.50;69.70;19.50;99123.00;;;;5053135;28;20713;-51
2022/11/16 01:53:59;;;;;;;2.07;1.87;;;18.50;69.70;19.50;99124.00;;;;5053119;28;20194;-51
2022/11/16 01:56:25;;;;;;;3.17;1.90;;;18.50;69.70;19.50;99128.00;;;;5053191;28;20197;-50
2022/11/16 01:58:51;;;;;;;1.80;1.70;;;18.50;69.70;19.50;99134.00;;;;5070885;28;20169;-52
2022/11/16 02:01:17;;;;;;;2.13;1.80;;;18.50;69.80;19.50;99139.00;;;;5052693;28;20653;-52
2022/11/16 02:03:42;;;;;;;2.03;1.70;;;18.50;69.90;19.50;99147.00;;;;5070445;28;20189;-51
2022/11/16 02:06:26;;;;;;;1.80;1.70;;;18.50;69.90;19.50;99158.00;;;;5070649;28;20251;-52
2022/11/16 02:12:43;;;;;;;1.80;1.70;;;18.50;70.70;19.50;99148.00;;;;5054979;28;20248;-52
2022/11/16 02:15:26;;;;;;;1.80;1.70;;;18.40;69.80;19.50;99142.00;;;;5052284;28;20195;-53
2022/11/16 02:18:31;;;;;;;1.90;1.80;;;18.40;69.90;19.40;99147.00;;;;5053163;28;20623;-50
2022/11/16 02:21:15;;;;;;;1.77;1.67;;;18.40;70.00;19.40;99141.00;;;;5070199;28;20539;-53
2022/11/16 02:24:21;;;;;;;1.83;1.70;;;18.40;69.90;19.40;99133.00;;;;5052129;28;20158;-53
2022/11/16 02:27:35;;;;;;;1.70;1.60;;;18.40;70.00;19.40;99110.00;;;;5070356;28;20804;-53
2022/11/16 02:30:01;;;;;;;1.87;1.77;;;18.40;70.00;19.40;99116.00;;;;5049372;28;20678;-51
2022/11/16 02:32:36;;;;;;;1.70;1.60;;;18.30;70.00;19.30;99111.00;;;;5052236;28;20188;-51
2022/11/16 02:35:18;;;;;;;2.00;1.90;;;18.30;70.00;19.40;99117.00;;;;5052131;28;20224;-54
2022/11/16 02:37:52;;;;;;;2.00;1.80;;;18.30;70.10;19.30;99113.00;;;;5052344;28;20214;-52
2022/11/16 02:40:19;;;;;;;1.80;1.70;;;18.30;70.20;19.30;99097.00;;;;5052339;28;20244;-51
2022/11/16 02:42:55;;;;;;;1.87;1.77;;;18.30;70.20;19.30;99115.00;;;;5052143;28;20200;-52
2022/11/16 02:45:27;;;;;;;1.90;1.80;;;18.30;70.20;19.30;99103.00;;;;5052279;28;20189;-51
2022/11/16 02:47:55;;;;;;;2.00;1.90;;;18.30;70.20;19.30;99102.00;;;;5052331;28;20227;-52
2022/11/16 02:50:22;;;;;;;1.80;1.70;;;18.20;70.10;19.30;99092.00;;;;5051984;28;20166;-50
2022/11/16 02:52:47;;;;;;;1.70;1.60;;;18.30;70.20;19.30;99088.00;;;;5051962;28;20172;-51
2022/11/16 02:55:13;;;;;;;1.70;1.60;;;18.20;70.10;19.30;99088.00;;;;5069568;28;20201;-53
2022/11/16 02:58:08;;;;;;;1.90;1.80;;;18.30;70.20;19.30;99076.00;;;;5069623;28;20196;-52
2022/11/16 03:01:06;;;;;;;1.83;1.70;;;18.20;70.10;19.30;99078.00;;;;5067123;28;20188;-52
2022/11/16 03:03:52;;;;;;;1.60;1.50;;;18.20;70.10;19.30;99061.00;;;;5051145;28;20162;-52
2022/11/16 03:06:28;;;;;;;1.50;1.40;;;18.20;70.10;19.30;99058.00;;;;5051673;28;20176;-51
2022/11/16 03:09:07;;;;;;;1.80;1.70;;;18.20;70.30;19.30;99042.00;;;;5051424;28;20580;-52
2022/11/16 03:14:22;;;;;;;1.90;1.80;;;18.20;71.00;19.20;99060.00;;;;5054091;28;20759;-52
2022/11/16 03:16:57;;;;;;;1.80;1.70;;;18.20;70.20;19.20;99054.00;;;;5050671;28;20221;-52
2022/11/16 03:19:41;;;;;;;1.70;1.60;;;18.20;70.20;19.20;99064.00;;;;5051251;28;20627;-53
2022/11/16 03:22:37;;;;;;;1.50;1.50;;;18.20;70.20;19.20;99060.00;;;;5050492;28;20211;-51
2022/11/16 03:25:04;;;;;;;1.93;1.70;;;18.10;70.20;19.20;99071.00;;;;5050811;28;20275;-52
2022/11/16 03:27:48;;;;;;;1.80;1.70;;;18.10;70.20;19.20;99080.00;;;;5051226;28;20182;-52
2022/11/16 03:30:20;;;;;;;1.67;1.57;;;18.10;70.10;19.20;99080.00;;;;5051631;28;20162;-51
2022/11/16 03:32:58;;;;;;;1.80;1.70;;;18.10;70.90;19.20;99075.00;;;;5051226;28;20169;-52
2022/11/16 03:35:28;;;;;;;1.83;1.73;;;18.10;70.20;19.20;99085.00;;;;5051084;28;20217;-53
2022/11/16 03:37:56;;;;;;;1.80;1.70;;;18.10;70.20;19.20;99093.00;;;;5051035;28;20335;-52
2022/11/16 03:40:22;;;;;;;1.70;1.60;;;18.10;70.30;19.20;99094.00;;;;5050877;28;20161;-52
2022/11/16 03:42:48;;;;;;;1.83;1.73;;;18.10;70.30;19.20;99099.00;;;;5065748;28;20615;-52
2022/11/16 03:45:14;;;;;;;1.73;1.63;;;18.00;70.30;19.20;99084.00;;;;5053490;28;20196;-53
2022/11/16 03:47:40;;;;;;;1.90;1.80;;;18.00;70.30;19.20;99099.00;;;;5056213;28;20184;-52
2022/11/16 03:50:07;;;;;;;1.90;1.80;;;18.00;70.40;19.20;99099.00;;;;5051585;28;20506;-53
2022/11/16 03:52:33;;;;;;;1.90;1.80;;;18.00;70.30;19.20;99104.00;;;;5072043;28;20173;-53
2022/11/16 03:54:58;;;;;;;1.70;1.60;;;18.00;70.30;19.20;99100.00;;;;5053859;28;20197;-52
2022/11/16 03:57:24;;;;;;;1.70;1.60;;;18.00;70.30;19.10;99099.00;;;;5068501;28;20201;-51
2022/11/16 03:59:50;;;;;;;1.80;1.70;;;18.00;70.40;19.10;99101.00;;;;5068510;28;20164;-53
2022/11/16 04:02:16;;;;;;;1.80;1.70;;;18.00;70.30;19.10;99106.00;;;;5068014;28;20832;-53
2022/11/16 04:24:12;;;;;;;1.80;1.70;;;17.90;70.40;19.00;99119.00;;;;5068278;28;20204;-51
2022/11/16 04:29:25;;;;;;;2.20;1.60;;;17.90;70.60;19.00;99141.00;;;;5052808;28;20449;-49
2022/11/16 04:40:04;;;;;;;2.70;1.73;;;17.90;70.40;19.00;99148.00;;;;5051789;28;20177;-50
2022/11/16 04:42:29;;;;;;;2.80;1.73;;;17.90;70.50;18.80;99147.00;;;;5053134;28;20205;-53
2022/11/16 04:47:39;;;;;;;4.70;1.87;;;17.90;70.70;19.00;99148.00;;;;5071261;28;20196;-51
2022/11/16 04:50:06;;;;;;;1.73;1.63;;;17.90;70.70;19.00;99147.00;;;;5071782;28;20260;-51
2022/11/16 04:52:31;;;;;;;2.60;1.60;;;17.90;70.70;19.00;99141.00;;;;5071338;28;20212;-50
2022/11/16 04:54:57;;;;;;;1.73;1.50;;;17.90;70.80;19.00;99165.00;;;;5071560;28;20271;-52
2022/11/16 04:57:23;;;;;;;3.00;1.70;;;17.80;70.70;19.00;99155.00;;;;5081142;28;20571;-52
2022/11/16 04:59:48;;;;;;;1.70;1.60;;;17.90;70.80;19.00;99161.00;;;;5072384;28;20199;-50
2022/11/16 05:02:14;;;;;;;2.17;1.50;;;17.80;70.70;18.90;99158.00;;;;5071223;28;20188;-53
2022/11/16 05:04:42;;;;;;;1.87;1.67;;;17.90;70.90;18.90;99155.00;;;;5071063;28;20192;-54
2022/11/16 05:07:12;;;;;;;2.53;1.70;;;17.80;70.70;18.90;99148.00;;;;5071487;28;20164;-52
2022/11/16 05:09:45;;;;;;;1.50;1.40;;;17.80;70.70;18.90;99144.00;;;;5071332;28;20173;-51
2022/11/16 05:12:16;;;;;;;2.43;1.70;;;17.80;70.70;18.90;99148.00;;;;5053274;28;20610;-51
2022/11/16 05:14:42;;;;;;;1.67;1.57;;;17.80;70.70;18.90;99157.00;;;;5071510;28;20192;-53
2022/11/16 05:17:08;;;;;;;2.10;1.60;;;17.80;70.70;18.90;99164.00;;;;5071388;28;20232;-52
2022/11/16 05:22:18;;;;;;;1.87;1.60;;;17.80;70.60;18.90;99151.00;;;;5056922;28;20164;-50
2022/11/16 05:24:44;;;;;;;2.73;1.60;;;17.80;70.50;18.90;99160.00;;;;5071445;28;20200;-51
2022/11/16 05:27:12;;;;;;;4.67;1.93;;;17.80;70.70;18.90;99154.00;;;;5070433;28;20646;-52
2022/11/16 05:29:38;;;;;;;2.63;1.60;;;17.80;71.10;18.90;99167.00;;;;5052848;28;20185;-50
2022/11/16 05:32:04;;;;;;;1.70;1.60;;;17.80;70.80;18.90;99170.00;;;;5070425;28;20177;-52
2022/11/16 05:34:30;;;;;;;2.20;1.70;;;17.80;70.90;18.90;99167.00;;;;5053532;28;20237;-52
2022/11/16 05:36:56;;;;;;;1.80;1.70;;;17.80;70.90;18.90;99166.00;;;;5070343;28;20221;-51
2022/11/16 05:39:21;;;;;;;2.77;1.70;;;17.70;70.80;18.80;99169.00;;;;5070125;28;20252;-52
2022/11/16 05:41:47;;;;;;;4.53;1.90;;;17.70;70.80;18.90;99167.00;;;;5069799;28;20818;-51
2022/11/16 05:44:13;;;;;;;5.40;1.80;;;17.70;70.70;18.80;99170.00;;;;5070234;28;20568;-50
2022/11/16 05:46:39;;;;;;;5.47;2.13;;;17.70;70.70;18.80;99157.00;;;;5053211;28;20691;-51
2022/11/16 05:49:06;;;;;;;8.63;2.50;;;17.70;70.80;18.80;99173.00;;;;5071211;28;20180;-54
2022/11/16 05:51:35;;;;;;;7.40;2.10;;;17.60;71.00;18.80;99172.00;;;;5071322;28;20324;-52
2022/11/16 05:54:02;;;;;;;4.53;2.10;;;17.70;71.20;18.80;99175.00;;;;5053242;28;20603;-54
2022/11/16 05:56:28;;;;;;;5.80;2.20;;;17.60;71.10;18.80;99184.00;;;;5070223;28;20209;-52
2022/11/16 05:58:54;;;;;;;7.50;2.40;;;17.60;71.50;18.80;99188.00;;;;5071024;28;20189;-52
2022/11/16 06:01:19;;;;;;;5.30;1.90;;;17.60;71.50;18.80;99192.00;;;;5051979;28;20177;-52
2022/11/16 06:03:45;;;;;;;7.40;2.10;;;17.60;71.50;18.80;99199.00;;;;5071188;28;20182;-52
2022/11/16 06:06:11;;;;;;;5.90;2.20;;;17.60;71.90;18.80;99182.00;;;;5070018;28;20213;-52
2022/11/16 06:08:36;;;;;;;5.37;2.17;;;17.60;71.80;18.80;99176.00;;;;5069556;28;20184;-50
2022/11/16 06:11:07;;;;;;;5.17;2.00;;;17.70;72.00;18.80;99186.00;;;;5069891;28;20181;-51
2022/11/16 06:13:32;;;;;;;4.43;2.00;;;17.60;72.10;18.90;99186.00;;;;5061262;28;20169;-52
2022/11/16 06:15:59;;;;;;;5.53;2.00;;;17.70;72.30;18.80;99183.00;;;;5075339;28;20177;-53
2022/11/16 06:18:25;;;;;;;4.43;2.20;;;17.70;72.30;18.80;99191.00;;;;5052445;28;20797;-53
2022/11/16 06:20:50;;;;;;;6.70;2.30;;;17.70;72.70;18.80;99199.00;;;;5070188;28;20165;-53
2022/11/16 06:23:16;;;;;;;5.00;2.40;;;17.70;72.70;18.80;99201.00;;;;5070090;28;20804;-50
2022/11/16 06:25:42;;;;;;;3.63;2.17;;;17.70;72.60;18.80;99197.00;;;;5071022;28;20197;-53
2022/11/16 06:28:08;;;;;;;6.83;2.03;;;17.60;72.30;18.80;99202.00;;;;5071064;28;20176;-50
2022/11/16 06:30:34;;;;;;;7.00;2.10;;;17.60;72.40;18.80;99210.00;;;;5052273;28;20158;-50
2022/11/16 06:32:59;;;;;;;6.93;2.00;;;17.70;72.70;18.80;99208.00;;;;5069353;28;20248;-49
2022/11/16 06:35:25;;;;;;;6.70;2.40;;;17.70;72.40;18.90;99210.00;;;;5051788;28;20196;-49
2022/11/16 06:37:51;;;;;;;5.80;2.30;;;17.80;72.40;18.90;99218.00;;;;5053176;28;20209;-50
2022/11/16 06:40:17;;;;;;;7.50;2.07;;;17.80;72.30;18.90;99225.00;;;;5071870;28;20169;-48
2022/11/16 06:42:42;;;;;;;7.33;2.10;;;17.90;72.40;18.90;99225.00;;;;5069155;28;20826;-49
2022/11/16 06:45:08;;;;;;;6.13;2.07;;;17.90;72.10;19.00;99229.00;;;;5069613;28;20195;-49
2022/11/16 06:47:34;;;;;;;5.90;2.00;;;18.00;72.00;19.00;99233.00;;;;5069314;28;20265;-49
2022/11/16 06:50:00;;;;;;;4.10;2.10;;;18.10;71.90;19.00;99236.00;;;;5070395;28;20177;-50
2022/11/16 06:52:27;;;;;;;3.30;1.93;;;18.20;71.90;19.10;99230.00;;;;5070157;28;20178;-49
2022/11/16 06:54:52;;;;;;;3.43;2.03;;;18.20;71.80;19.10;99240.00;;;;5070165;28;20652;-49
2022/11/16 06:57:18;;;;;;;6.07;2.00;;;18.20;71.70;19.10;99241.00;;;;5068787;28;20189;-48
2022/11/16 06:59:44;;;;;;;3.17;2.00;;;18.20;71.60;19.20;99243.00;;;;5069966;28;20180;-49
2022/11/16 07:02:10;;;;;;;3.00;1.83;;;18.30;71.50;19.20;99233.00;;;;5069636;28;20174;-48
2022/11/16 07:04:35;;;;;;;4.67;2.03;;;18.30;71.50;19.20;99224.00;;;;5069581;28;20181;-48
2022/11/16 07:07:01;;;;;;;7.17;2.23;;;18.40;71.50;19.20;99235.00;;;;5069424;28;20173;-50
2022/11/16 07:09:27;;;;;;;4.00;2.03;;;18.40;71.50;19.30;99239.00;;;;5069226;28;20260;-50
2022/11/16 07:11:53;;;;;;;3.37;1.90;;;18.30;71.40;19.30;99252.00;;;;5069740;28;20173;-49
2022/11/16 07:14:18;;;;;;;2.77;1.80;;;18.40;71.50;19.30;99253.00;;;;5069513;28;20783;-50
2022/11/16 07:16:44;;;;;;;3.83;2.07;;;18.40;71.50;19.30;99250.00;;;;5069078;28;20737;-49
2022/11/16 07:19:10;;;;;;;3.93;1.73;;;18.40;71.50;19.30;99254.00;;;;5069612;28;20247;-48
2022/11/16 07:21:38;;;;;;;3.47;1.70;;;18.30;71.50;19.30;99251.00;;;;5072850;28;20202;-50
2022/11/16 07:24:04;;;;;;;3.60;1.90;;;18.40;71.50;19.30;99256.00;;;;5051807;28;20198;-48
2022/11/16 07:26:33;;;;;;;4.00;1.70;;;18.30;71.50;19.30;99262.00;;;;5068623;28;20188;-49
2022/11/16 07:28:59;;;;;;;2.83;1.60;;;18.40;71.60;19.40;99273.00;;;;5069232;28;20169;-49
2022/11/16 07:31:25;;;;;;;3.90;1.80;;;18.40;71.50;19.40;99281.00;;;;5068810;28;20185;-50
2022/11/16 07:33:51;;;;;;;4.17;1.93;;;18.40;71.40;19.40;99285.00;;;;5069105;28;20691;-50
2022/11/16 07:36:17;;;;;;;4.60;1.90;;;18.50;71.50;19.40;99275.00;;;;5068780;28;20254;-49
2022/11/16 07:38:43;;;;;;;5.77;1.90;;;18.50;71.30;19.40;99287.00;;;;5068256;28;20304;-51
2022/11/16 07:41:16;;;;;;;2.93;1.77;;;18.50;71.50;19.40;99278.00;;;;5069277;28;20230;-51
2022/11/16 07:43:42;;;;;;;2.47;1.93;;;18.50;71.50;19.40;99283.00;;;;5052865;28;20512;-51
2022/11/16 07:46:13;;;;;;;4.70;1.90;;;18.50;71.50;19.40;99295.00;;;;5068971;28;20165;-51
2022/11/16 07:48:38;;;;;;;3.43;1.77;;;18.50;71.50;19.40;99304.00;;;;5069564;28;20169;-51
2022/11/16 07:51:07;;;;;;;2.97;1.97;;;18.50;71.50;19.50;99305.00;;;;5007698;28;20677;-52
2022/11/16 07:53:33;;;;;;;3.67;1.60;;;18.50;71.50;19.50;99309.00;;;;5059984;28;20170;-52
2022/11/16 07:55:58;;;;;;;2.00;1.70;;;18.60;71.50;19.50;99304.00;;;;5056616;28;20166;-52
2022/11/16 07:58:25;;;;;;;5.00;2.10;;;18.50;71.30;19.50;99296.00;;;;5064287;28;20795;-51
2022/11/16 08:00:50;;;;;;;4.83;1.90;;;18.50;71.40;19.50;99312.00;;;;5049512;28;20162;-51
2022/11/16 08:03:16;;;;;;;5.73;1.90;;;18.60;71.50;19.50;99266.00;;;;5048482;28;20654;-54
2022/11/16 08:05:43;;;;;;;4.50;2.10;;;18.60;71.50;19.50;99313.00;;;;5055685;28;20681;-52
2022/11/16 08:08:10;;;;;;;3.60;2.03;;;18.60;71.60;19.50;99305.00;;;;5068160;28;20617;-53
2022/11/16 08:10:36;;;;;;;4.40;1.77;;;18.60;71.70;19.50;99295.00;;;;5064035;28;20267;-53
2022/11/16 08:13:02;;;;;;;5.47;1.93;;;18.50;71.80;19.50;99299.00;;;;5066172;28;20284;-50
2022/11/16 08:15:27;;;;;;;4.10;1.60;;;18.50;71.90;19.50;99311.00;;;;5067841;28;20211;-51
2022/11/16 08:17:53;;;;;;;1.97;1.77;;;18.50;72.00;19.50;99313.00;;;;5067886;28;20205;-51
2022/11/16 08:20:20;;;;;;;3.13;1.67;;;18.50;72.10;19.50;99309.00;;;;5067045;28;20737;-51
2022/11/16 08:22:45;;;;;;;5.00;2.00;;;18.60;72.00;19.50;99316.00;;;;5048170;28;20177;-48
2022/11/16 08:25:12;;;;;;;7.30;2.20;;;18.50;72.00;19.50;99322.00;;;;5046787;28;20189;-48
2022/11/16 08:27:38;;;;;;;3.60;2.00;;;18.50;72.10;19.50;99326.00;;;;5031000;28;20178;-50
2022/11/16 08:30:08;;;;;;;3.77;1.90;;;18.50;72.10;19.50;99328.00;;;;5033455;28;20198;-49
2022/11/16 08:32:35;;;;;;;5.50;1.90;;;18.50;72.10;19.50;99340.00;;;;5055953;28;20214;-50
2022/11/16 08:35:00;;;;;;;9.13;2.00;;;18.60;72.30;19.50;99341.00;;;;5055517;28;20317;-50
2022/11/16 08:37:27;;;;;;;4.67;1.83;;;18.60;72.20;19.60;99337.00;;;;5055557;28;20816;-49
2022/11/16 08:39:53;;;;;;;4.87;1.80;;;18.60;72.20;19.50;99337.00;;;;5055238;28;20634;-50
2022/11/16 08:42:20;;;;;;;3.60;1.77;;;18.60;72.30;19.60;99348.00;;;;5055380;28;20158;-50
2022/11/16 08:44:45;;;;;;;3.80;1.90;;;18.60;72.40;19.60;99355.00;;;;5050425;28;20198;-49
2022/11/16 08:47:11;;;;;;;3.93;1.87;;;18.60;72.50;19.60;99362.00;;;;5049669;28;20174;-48
2022/11/16 08:49:37;;;;;;;3.27;1.93;;;18.60;72.50;19.60;99367.00;;;;5047761;28;20198;-50
2022/11/16 08:52:03;;;;;;;2.20;1.70;;;18.60;72.50;19.60;99366.00;;;;5005767;28;20256;-49
2022/11/16 08:54:29;;;;;;;2.60;1.93;;;18.60;72.60;19.60;99380.00;;;;5067783;28;20205;-49
2022/11/16 08:56:55;;;;;;;2.60;1.53;;;18.60;72.50;19.60;99380.00;;;;5068090;28;20254;-49
2022/11/16 08:59:20;;;;;;;3.00;1.83;;;18.60;72.50;19.60;99388.00;;;;5068319;28;20170;-48
2022/11/16 09:01:46;;;;;;;3.20;1.77;;;18.60;72.50;19.50;99379.00;;;;5067964;28;20173;-47
2022/11/16 09:04:12;;;;;;;4.70;1.70;;;18.60;72.50;19.50;99381.00;;;;5068138;28;20197;-48
2022/11/16 09:06:38;;;;;;;2.60;1.70;;;18.60;72.70;19.50;99373.00;;;;5068016;28;20178;-48
2022/11/16 09:09:03;;;;;;;3.00;1.70;;;18.50;72.60;19.50;99380.00;;;;5067373;28;20182;-50
2022/11/16 09:11:29;;;;;;;2.23;2.00;;;18.50;72.60;19.50;99385.00;;;;5067874;28;20650;-49
2022/11/16 09:13:55;;;;;;;2.47;1.60;;;18.50;72.60;19.50;99385.00;;;;5068343;28;20680;-49
2022/11/16 09:16:21;;;;;;;2.90;1.40;;;18.50;72.70;19.50;99391.00;;;;5049846;28;20190;-50
2022/11/16 09:18:48;;;;;;;2.50;1.70;;;18.50;72.50;19.50;99392.00;;;;5067797;28;20170;-48
2022/11/16 09:21:25;;;;;;;2.87;1.70;;;18.50;72.60;19.50;99394.00;;;;5071123;28;20177;-48
2022/11/16 09:23:51;;;;;;;1.60;1.50;;;18.40;72.50;19.50;99384.00;;;;5073505;28;20200;-45
2022/11/16 09:26:21;;;;;;;1.97;1.77;;;18.50;72.50;19.50;99387.00;;;;5054962;28;20181;-50
2022/11/16 09:28:58;;;;;;;2.67;1.67;;;18.40;72.50;19.50;99382.00;;;;5072474;28;20178;-48
2022/11/16 09:31:27;;;;;;;2.77;1.53;;;18.50;72.50;19.50;99379.00;;;;5072193;28;20173;-48
2022/11/16 09:33:57;;;;;;;2.73;1.53;;;18.50;72.60;19.40;99381.00;;;;5073034;28;20190;-49
2022/11/16 09:36:22;;;;;;;3.40;1.80;;;18.50;72.80;19.40;99393.00;;;;5080540;28;20487;-51
2022/11/16 09:38:48;;;;;;;2.60;1.63;;;18.50;73.10;19.40;99387.00;;;;5059206;28;20166;-48
2022/11/16 09:41:14;;;;;;;2.30;1.70;;;18.40;73.10;19.40;99393.00;;;;5073431;28;20181;-47
2022/11/16 09:43:52;;;;;;;4.67;2.00;;;18.40;73.10;19.40;99390.00;;;;5072021;28;20166;-49
2022/11/16 09:46:32;;;;;;;3.07;1.63;;;18.40;73.10;19.40;99404.00;;;;5045216;28;20695;-48
2022/11/16 09:48:59;;;;;;;3.63;2.20;;;18.40;73.10;19.40;99396.00;;;;5001830;28;20154;-49
2022/11/16 09:51:28;;;;;;;2.30;1.53;;;18.40;73.10;19.40;99402.00;;;;4974888;28;20221;-48
2022/11/16 09:54:03;;;;;;;1.97;1.60;;;18.40;73.00;19.40;99387.00;;;;5053008;28;20221;-49
2022/11/16 09:56:30;;;;;;;3.00;1.60;;;18.40;73.10;19.40;99384.00;;;;5053341;28;20201;-48
2022/11/16 09:59:11;;;;;;;2.57;1.53;;;18.40;73.00;19.40;99396.00;;;;5053948;28;20204;-48
2022/11/16 10:01:53;;;;;;;2.13;1.83;;;18.40;73.00;19.40;99395.00;;;;5070253;28;20172;-48
2022/11/16 10:04:35;;;;;;;3.30;1.70;;;18.40;73.00;19.40;99373.00;;;;5071359;28;20231;-49
2022/11/16 10:07:15;;;;;;;2.43;1.90;;;18.30;72.90;19.40;99390.00;;;;5039264;28;20157;-49
2022/11/16 10:09:41;;;;;;;2.10;1.70;;;18.30;73.00;19.40;99393.00;;;;5052587;28;20303;-48
2022/11/16 10:12:25;;;;;;;1.80;1.60;;;18.40;73.20;19.40;99389.00;;;;5052335;28;20176;-51
2022/11/16 10:15:08;;;;;;;2.17;1.80;;;18.30;73.10;19.40;99387.00;;;;5055151;28;20268;-48
2022/11/16 10:18:12;;;;;;;1.80;1.70;;;18.30;73.00;19.40;99386.00;;;;5054877;28;20803;-48
2022/11/16 10:21:11;;;;;;;3.53;1.77;;;18.30;73.00;19.40;99381.00;;;;5056380;28;20168;-50
2022/11/16 10:24:16;;;;;;;2.93;1.70;;;18.30;73.00;19.30;99383.00;;;;5038349;28;20165;-49
2022/11/16 10:26:58;;;;;;;2.23;1.70;;;18.30;73.10;19.30;99375.00;;;;5055591;28;20165;-51
2022/11/16 10:30:07;;;;;;;2.10;1.67;;;18.30;73.10;19.30;99367.00;;;;5054719;28;20189;-49
2022/11/16 10:32:53;;;;;;;1.80;1.60;;;18.30;73.10;19.30;99365.00;;;;5069451;28;20216;-49
2022/11/16 10:35:30;;;;;;;2.40;1.77;;;18.30;73.30;19.30;99359.00;;;;5054967;28;20284;-49
2022/11/16 10:37:58;;;;;;;1.70;1.50;;;18.30;73.30;19.30;99358.00;;;;5052650;28;20185;-48
2022/11/16 10:40:28;;;;;;;1.77;1.43;;;18.30;74.10;19.30;99354.00;;;;5052691;28;21004;-50
2022/11/16 10:43:13;;;;;;;1.63;1.50;;;18.30;73.30;19.30;99349.00;;;;5052591;28;20201;-49
2022/11/16 10:45:51;;;;;;;2.40;1.73;;;18.30;73.20;19.30;99352.00;;;;5052960;28;20196;-50
2022/11/16 10:48:36;;;;;;;1.50;1.40;;;18.30;73.20;19.30;99345.00;;;;5032698;28;20258;-49
2022/11/16 10:51:03;;;;;;;1.93;1.57;;;18.30;73.20;19.30;99341.00;;;;4961260;28;20177;-49
2022/11/16 10:53:34;;;;;;;2.27;1.70;;;18.30;74.00;19.30;99343.00;;;;5031982;28;20163;-50
2022/11/16 10:56:36;;;;;;;1.53;1.40;;;18.30;73.30;19.30;99330.00;;;;5050070;28;20174;-51
2022/11/16 10:59:06;;;;;;;2.83;1.43;;;18.30;73.40;19.30;99336.00;;;;5016058;28;20201;-49
2022/11/16 11:01:49;;;;;;;1.60;1.50;;;18.30;73.40;19.30;99334.00;;;;5049599;28;20183;-49
2022/11/16 11:04:28;;;;;;;2.03;1.50;;;18.30;73.30;19.30;99331.00;;;;5033554;28;20288;-49
2022/11/16 11:07:20;;;;;;;1.73;1.50;;;18.30;73.90;19.30;99339.00;;;;5051500;28;20207;-49
2022/11/16 11:09:52;;;;;;;3.13;1.70;;;18.30;73.50;19.30;99333.00;;;;5068201;28;20227;-49
2022/11/16 11:12:37;;;;;;;1.80;1.70;;;18.30;73.90;19.30;99334.00;;;;5051936;28;20801;-49
2022/11/16 11:15:25;;;;;;;5.40;1.97;;;18.30;74.10;19.30;99335.00;;;;5069302;28;20193;-49
2022/11/16 11:18:11;;;;;;;2.70;1.50;;;18.40;74.10;19.30;99315.00;;;;5069234;28;20201;-50
2022/11/16 11:20:40;;;;;;;3.53;1.50;;;18.40;73.90;19.30;99324.00;;;;5037821;28;20150;-50
2022/11/16 11:23:12;;;;;;;2.60;1.53;;;18.40;73.90;19.30;99314.00;;;;5051677;28;20150;-50
2022/11/16 11:25:46;;;;;;;2.37;1.40;;;18.40;73.90;19.30;99308.00;;;;5051209;28;20182;-52
2022/11/16 11:28:20;;;;;;;3.27;1.43;;;18.40;73.80;19.40;99310.00;;;;5035840;28;20173;-50
2022/11/16 11:31:12;;;;;;;2.73;1.70;;;18.50;73.70;19.40;99299.00;;;;5034527;28;20161;-50
2022/11/16 11:33:42;;;;;;;1.97;1.70;;;18.50;73.60;19.40;99294.00;;;;5036132;28;20213;-49
2022/11/16 11:36:24;;;;;;;2.20;1.60;;;18.50;73.50;19.40;99224.00;;;;5048292;28;20256;-49
2022/11/16 11:38:58;;;;;;;1.80;1.40;;;18.50;73.30;19.40;99291.00;;;;5031858;28;20570;-49
2022/11/16 11:41:26;;;;;;;2.97;1.67;;;18.50;74.00;19.40;99289.00;;;;5048979;28;20185;-49
2022/11/16 11:44:13;;;;;;;2.93;1.60;;;18.60;74.40;19.40;99294.00;;;;5030976;28;20186;-49
2022/11/16 11:46:48;;;;;;;2.83;1.50;;;18.60;73.90;19.40;99279.00;;;;5040314;28;20179;-51
2022/11/16 11:49:25;;;;;;;1.40;1.30;;;18.50;73.70;19.40;99282.00;;;;5051283;28;20189;-47
2022/11/16 11:51:53;;;;;;;2.50;1.53;;;18.60;74.50;19.40;99277.00;;;;4970826;28;20182;-52